Time;durP1;ratioP1;P1;durP2;ratioP2;P2;SDS_P1;SDS_P2;PMS_P1;PMS_P2;Temp;Humidity;BMP_temperature;BMP_pressure;BME280_temperature;BME280_humidity;BME280_pressure;Samples;Min_cycle;Max_cycle;Signal;HPM_P1;HPM_P2
2021/03/14 06:44:06;;;;;;;3.25;1.80;;;16.80;47.40;;;;;;5103998;23;20235;-82
2021/03/14 06:46:32;;;;;;;3.05;1.88;;;16.90;47.40;;;;;;4864374;29;20191;-82
2021/03/14 06:49:06;;;;;;;5.07;2.10;;;16.90;47.40;;;;;;4864186;29;20175;-82
2021/03/14 06:51:34;;;;;;;3.88;2.00;;;16.80;47.50;;;;;;4879986;29;20164;-82
2021/03/14 06:54:27;;;;;;;4.03;2.30;;;16.80;47.50;;;;;;4879283;29;20223;-82
2021/03/14 06:57:13;;;;;;;4.15;1.98;;;16.90;47.60;;;;;;4895234;29;20183;-82
2021/03/14 06:59:44;;;;;;;2.78;1.85;;;16.80;47.50;;;;;;4879509;29;20175;-82
2021/03/14 07:02:21;;;;;;;5.07;2.08;;;16.80;47.50;;;;;;4879837;29;20192;-82
2021/03/14 07:04:58;;;;;;;2.78;1.88;;;16.80;47.50;;;;;;4897210;29;20183;-83
2021/03/14 07:07:39;;;;;;;2.90;1.80;;;16.80;47.40;;;;;;4896098;29;20171;-82
2021/03/14 07:10:09;;;;;;;3.72;1.85;;;16.80;47.50;;;;;;4881700;29;20163;-82
2021/03/14 07:12:42;;;;;;;5.53;2.00;;;16.80;47.40;;;;;;4880669;29;20196;-83
2021/03/14 07:15:17;;;;;;;4.93;2.00;;;16.80;47.40;;;;;;4880473;29;20215;-83
2021/03/14 07:17:55;;;;;;;3.88;1.77;;;16.80;47.40;;;;;;4895282;29;20215;-83
2021/03/14 07:20:25;;;;;;;3.72;2.20;;;16.80;47.40;;;;;;4878519;29;20167;-82
2021/03/14 07:23:08;;;;;;;3.65;1.83;;;16.80;47.40;;;;;;4880852;29;20190;-82
2021/03/14 07:25:41;;;;;;;2.97;1.92;;;16.90;47.30;;;;;;4863825;29;20182;-82
2021/03/14 07:28:10;;;;;;;2.60;1.88;;;16.90;47.30;;;;;;4863473;29;20176;-81
2021/03/14 07:30:38;;;;;;;3.83;2.20;;;16.90;47.30;;;;;;4880181;29;20255;-82
2021/03/14 07:33:05;;;;;;;5.38;2.05;;;16.80;47.30;;;;;;4859081;29;20175;-82
2021/03/14 07:35:32;;;;;;;4.05;1.77;;;16.90;47.30;;;;;;4856208;29;20192;-81
2021/03/14 07:37:58;;;;;;;3.65;1.95;;;16.90;47.00;;;;;;4874517;29;20175;-81
2021/03/14 07:40:25;;;;;;;3.10;1.90;;;17.00;47.10;;;;;;4888594;29;20616;-82
2021/03/14 07:42:58;;;;;;;4.57;1.55;;;17.00;47.10;;;;;;4872544;29;20227;-82
2021/03/14 07:45:28;;;;;;;5.35;2.08;;;17.00;47.00;;;;;;4858487;29;20187;-82
2021/03/14 07:47:56;;;;;;;5.18;1.80;;;17.00;47.10;;;;;;4859926;29;20243;-82
2021/03/14 07:50:35;;;;;;;4.20;1.98;;;17.00;47.10;;;;;;4881063;29;20608;-82
2021/03/14 07:53:11;;;;;;;3.70;1.52;;;17.00;47.80;;;;;;4861753;29;20176;-82
2021/03/14 07:55:37;;;;;;;3.47;2.28;;;17.10;47.20;;;;;;4861656;29;20192;-82
2021/03/14 07:58:08;;;;;;;3.50;2.13;;;17.10;46.90;;;;;;4874524;29;20167;-82
2021/03/14 08:00:36;;;;;;;4.93;2.20;;;17.10;47.00;;;;;;4856745;29;20187;-82
2021/03/14 08:03:13;;;;;;;3.13;2.03;;;17.10;47.20;;;;;;4856217;29;20200;-82
2021/03/14 08:05:40;;;;;;;5.63;2.05;;;17.10;47.10;;;;;;4871107;29;20198;-82
2021/03/14 08:08:24;;;;;;;4.95;1.90;;;17.10;47.30;;;;;;4890418;29;20172;-82
2021/03/14 08:10:56;;;;;;;4.95;2.40;;;17.10;47.20;;;;;;4890496;29;20172;-82
2021/03/14 08:13:31;;;;;;;3.97;1.95;;;17.10;47.10;;;;;;4889386;29;20239;-82
2021/03/14 08:16:00;;;;;;;5.18;2.20;;;17.10;47.10;;;;;;4891344;29;20155;-82
2021/03/14 08:18:48;;;;;;;6.88;2.28;;;17.10;47.20;;;;;;4874411;29;20176;-82
2021/03/14 08:21:23;;;;;;;6.53;2.10;;;17.10;47.30;;;;;;4860249;29;20651;-83
2021/03/14 08:23:52;;;;;;;6.75;2.47;;;17.00;47.40;;;;;;4891462;29;20168;-82
2021/03/14 08:26:33;;;;;;;6.78;2.10;;;17.10;47.50;;;;;;4855159;29;20250;-82
2021/03/14 08:29:02;;;;;;;4.80;2.13;;;17.20;47.40;;;;;;4858552;29;20251;-82
2021/03/14 08:31:39;;;;;;;6.18;1.98;;;17.20;47.20;;;;;;4889135;29;20304;-82
2021/03/14 08:34:06;;;;;;;6.80;1.95;;;17.20;47.20;;;;;;4858676;29;20195;-83
2021/03/14 08:36:39;;;;;;;5.75;1.90;;;17.20;47.30;;;;;;4858318;29;20169;-82
2021/03/14 08:39:20;;;;;;;6.25;2.10;;;17.20;47.30;;;;;;4860919;29;20180;-82
2021/03/14 08:41:55;;;;;;;8.00;1.92;;;17.20;47.30;;;;;;4888415;29;20223;-82
2021/03/14 08:44:37;;;;;;;5.35;2.20;;;17.30;47.10;;;;;;4870969;29;20590;-82
2021/03/14 08:47:04;;;;;;;5.38;1.85;;;17.30;47.30;;;;;;4857591;29;20202;-82
2021/03/14 08:49:36;;;;;;;9.98;2.10;;;17.30;47.40;;;;;;4877656;29;20236;-82
2021/03/14 08:52:03;;;;;;;10.18;2.20;;;17.30;47.20;;;;;;4861243;29;20193;-82
2021/03/14 08:54:41;;;;;;;9.27;3.47;;;17.40;47.10;;;;;;4864569;29;20252;-82
2021/03/14 08:57:13;;;;;;;13.40;2.67;;;17.40;47.40;;;;;;4893948;29;20164;-82
2021/03/14 08:59:56;;;;;;;15.07;2.50;;;17.40;47.30;;;;;;4891873;29;20503;-82
2021/03/14 09:02:32;;;;;;;13.85;2.63;;;17.50;47.60;;;;;;4874962;29;20184;-82
2021/03/14 09:05:19;;;;;;;13.13;2.15;;;17.50;47.30;;;;;;4874491;29;20195;-83
2021/03/14 09:08:02;;;;;;;9.80;2.10;;;17.50;47.30;;;;;;4868722;29;20199;-83
2021/03/14 09:10:34;;;;;;;10.95;2.45;;;17.50;47.20;;;;;;4871352;29;20183;-83
2021/03/14 09:13:01;;;;;;;11.98;2.80;;;17.50;47.20;;;;;;4885465;29;20169;-82
2021/03/14 09:15:29;;;;;;;7.88;2.25;;;17.50;47.10;;;;;;4886956;29;20203;-83
2021/03/14 09:18:00;;;;;;;11.23;2.15;;;17.50;47.30;;;;;;4886321;29;20572;-83
2021/03/14 09:20:26;;;;;;;4.50;1.77;;;17.40;47.50;;;;;;4885664;29;20161;-83
2021/03/14 09:23:06;;;;;;;8.68;2.00;;;17.30;47.50;;;;;;4870574;29;20168;-83
2021/03/14 09:25:34;;;;;;;11.52;2.25;;;17.30;47.50;;;;;;4883383;29;20525;-83
2021/03/14 09:28:01;;;;;;;10.65;2.47;;;17.30;47.70;;;;;;4884534;29;20161;-83
2021/03/14 09:30:32;;;;;;;4.82;2.25;;;17.40;47.70;;;;;;4885149;29;20200;-83
2021/03/14 09:33:03;;;;;;;10.45;2.45;;;17.40;47.70;;;;;;4869432;29;20180;-83
2021/03/14 09:35:36;;;;;;;14.68;2.20;;;17.40;47.80;;;;;;4869155;29;20196;-83
2021/03/14 09:38:04;;;;;;;11.95;2.33;;;17.40;47.80;;;;;;4887251;29;20168;-83
2021/03/14 09:40:34;;;;;;;12.38;2.63;;;17.40;47.80;;;;;;4886070;29;20668;-83
2021/03/14 09:43:18;;;;;;;15.88;2.78;;;17.40;47.70;;;;;;4892270;29;20216;-83
2021/03/14 09:45:59;;;;;;;8.60;2.45;;;17.40;47.70;;;;;;4857971;29;20188;-84
2021/03/14 09:48:32;;;;;;;14.05;2.35;;;17.50;47.80;;;;;;4879282;29;20183;-83
2021/03/14 09:51:04;;;;;;;14.95;2.45;;;17.50;47.80;;;;;;4881469;29;20209;-84
2021/03/14 09:53:35;;;;;;;9.10;2.70;;;17.50;48.00;;;;;;4876997;29;20180;-83
2021/03/14 09:56:10;;;;;;;17.05;2.83;;;17.50;47.70;;;;;;4878222;29;20192;-83
2021/03/14 09:58:41;;;;;;;21.77;2.90;;;17.60;48.00;;;;;;4878536;29;20175;-83
2021/03/14 10:01:16;;;;;;;13.90;2.78;;;17.70;47.90;;;;;;4859304;29;20280;-83
2021/03/14 10:03:59;;;;;;;10.13;2.95;;;17.70;47.90;;;;;;4844466;29;20228;-82
2021/03/14 10:06:48;;;;;;;22.23;2.60;;;17.70;47.60;;;;;;4855660;29;20187;-81
2021/03/14 10:09:26;;;;;;;14.23;2.65;;;17.70;47.30;;;;;;4841559;29;20177;-83
2021/03/14 10:12:00;;;;;;;13.65;2.50;;;17.70;47.30;;;;;;4840818;29;20708;-83
2021/03/14 10:14:28;;;;;;;13.88;2.63;;;17.70;47.30;;;;;;4856391;29;20193;-83
2021/03/14 10:16:58;;;;;;;12.75;2.70;;;17.70;47.50;;;;;;4875973;29;20217;-82
2021/03/14 10:19:26;;;;;;;11.02;3.17;;;17.60;47.50;;;;;;4860519;29;20180;-82
2021/03/14 10:21:54;;;;;;;17.85;2.42;;;17.60;47.60;;;;;;4843797;29;20249;-81
2021/03/14 10:24:45;;;;;;;12.88;2.42;;;17.60;48.20;;;;;;4841915;29;20193;-81
2021/03/14 10:28:04;;;;;;;15.27;2.50;;;17.50;47.80;;;;;;4846561;29;20189;-82
2021/03/14 10:30:56;;;;;;;12.38;2.78;;;17.50;47.90;;;;;;4858767;29;20664;-82
2021/03/14 10:33:42;;;;;;;13.35;2.50;;;17.50;47.90;;;;;;4886714;29;20187;-82
2021/03/14 10:36:33;;;;;;;11.48;2.38;;;17.50;48.20;;;;;;4885052;29;20183;-82
2021/03/14 10:39:01;;;;;;;19.75;2.70;;;17.40;48.30;;;;;;4881846;29;20255;-83
2021/03/14 10:41:46;;;;;;;13.50;2.53;;;17.50;48.30;;;;;;4866554;29;20172;-83
2021/03/14 10:44:11;;;;;;;14.73;2.55;;;17.40;48.40;;;;;;4868168;29;20238;-82
2021/03/14 10:46:51;;;;;;;17.98;2.80;;;17.40;48.40;;;;;;4877054;29;20172;-84
2021/03/14 10:52:41;;;;;;;10.25;2.58;;;17.40;48.50;;;;;;4888976;29;20634;-84
2021/03/14 10:55:34;;;;;;;15.55;2.85;;;17.50;48.60;;;;;;4862888;29;20206;-84
2021/03/14 10:58:06;;;;;;;12.95;2.83;;;17.50;48.60;;;;;;4890806;29;20168;-84
2021/03/14 11:00:33;;;;;;;12.38;2.72;;;17.40;48.50;;;;;;4858218;29;20173;-83
2021/03/14 11:03:13;;;;;;;13.30;2.63;;;17.50;48.70;;;;;;4857989;29;20171;-83
2021/03/14 11:05:42;;;;;;;10.85;2.53;;;17.50;48.70;;;;;;4863225;29;20187;-82
2021/03/14 11:08:36;;;;;;;11.98;2.72;;;17.60;48.50;;;;;;4865506;29;20212;-83
2021/03/14 11:11:15;;;;;;;14.27;2.60;;;17.60;48.60;;;;;;4869075;29;20203;-83
2021/03/14 11:13:48;;;;;;;5.50;2.25;;;17.50;48.60;;;;;;4865850;29;20225;-84
2021/03/14 11:16:56;;;;;;;15.82;2.70;;;17.60;48.60;;;;;;4807675;29;20554;-84
2021/03/14 11:19:48;;;;;;;12.23;2.70;;;17.60;48.60;;;;;;4813751;29;20206;-83
2021/03/14 11:22:35;;;;;;;11.18;2.00;;;17.50;48.60;;;;;;4826595;29;20169;-84
2021/03/14 11:25:04;;;;;;;16.83;2.80;;;17.60;48.70;;;;;;4811015;29;20197;-83
2021/03/14 11:27:35;;;;;;;17.50;2.65;;;17.50;48.60;;;;;;4806299;29;20166;-83
2021/03/14 11:30:21;;;;;;;10.95;2.40;;;17.50;48.90;;;;;;4799834;29;20198;-84
2021/03/14 11:32:48;;;;;;;10.05;2.20;;;17.50;48.90;;;;;;4817483;29;20179;-85
2021/03/14 11:35:14;;;;;;;6.85;2.25;;;17.60;48.70;;;;;;4822027;29;20202;-84
2021/03/14 11:37:43;;;;;;;7.35;2.00;;;17.70;48.50;;;;;;4805562;29;20179;-83
2021/03/14 11:40:56;;;;;;;18.23;2.65;;;17.70;48.40;;;;;;4808683;29;20229;-83
2021/03/14 11:43:23;;;;;;;8.80;2.10;;;17.70;48.60;;;;;;4819188;29;20325;-83
2021/03/14 11:46:06;;;;;;;8.98;2.20;;;17.70;48.50;;;;;;4789017;29;20249;-83
2021/03/14 11:48:32;;;;;;;11.20;3.10;;;17.70;48.30;;;;;;4799150;29;20191;-84
2021/03/14 11:51:03;;;;;;;5.65;2.25;;;17.70;48.40;;;;;;4786930;29;20219;-84
2021/03/14 11:53:34;;;;;;;15.60;2.60;;;17.60;48.60;;;;;;4808227;29;20223;-84
2021/03/14 11:56:30;;;;;;;8.80;2.47;;;17.70;48.50;;;;;;4820754;29;20190;-84
2021/03/14 11:59:02;;;;;;;10.27;3.08;;;17.80;48.30;;;;;;4819284;29;20194;-84
2021/03/14 12:01:46;;;;;;;12.38;2.50;;;17.80;48.60;;;;;;4799880;29;20266;-82
2021/03/14 12:04:26;;;;;;;11.43;2.60;;;17.80;48.50;;;;;;4822462;29;20768;-82
2021/03/14 12:06:54;;;;;;;17.23;2.90;;;17.80;48.60;;;;;;4793310;29;20261;-82
2021/03/14 12:09:59;;;;;;;;;;;;;;;;;;;;;
2021/03/14 12:12:36;;;;;;;17.67;3.00;;;17.90;48.70;;;;;;4769982;30;20188;-82
2021/03/14 12:15:39;;;;;;;18.85;3.15;;;17.80;48.90;;;;;;4784958;30;20218;-82
2021/03/14 12:18:41;;;;;;;9.30;2.38;;;17.90;48.90;;;;;;4787538;30;20231;-81
2021/03/14 12:21:44;;;;;;;17.27;2.63;;;18.00;48.50;;;;;;4751369;30;20200;-81
2021/03/14 12:28:17;;;;;;;21.50;3.05;;;17.90;49.00;;;;;;4681614;30;20739;-81
2021/03/14 12:30:55;;;;;;;21.73;2.83;;;17.90;48.90;;;;;;4666561;30;20719;-81
2021/03/14 12:33:22;;;;;;;16.05;2.88;;;17.90;49.00;;;;;;4655916;30;20199;-81
2021/03/14 12:36:22;;;;;;;13.75;2.85;;;17.90;48.50;;;;;;4685780;30;20199;-82
2021/03/14 12:38:48;;;;;;;13.20;2.40;;;18.00;48.60;;;;;;4669335;30;20215;-81
2021/03/14 12:52:04;;;;;;;17.85;2.72;;;17.80;49.00;;;;;;4617414;31;20374;-81
2021/03/14 12:58:04;;;;;;;20.23;2.88;;;17.80;49.40;;;;;;4645295;30;20281;-82
2021/03/14 13:04:14;;;;;;;20.00;2.95;;;17.80;49.50;;;;;;4772209;30;20267;-83
2021/03/14 13:06:43;;;;;;;22.73;3.17;;;17.80;49.40;;;;;;4747071;30;20213;-81
2021/03/14 13:09:55;;;;;;;24.90;3.15;;;17.90;49.70;;;;;;4740538;30;20197;-81
2021/03/14 13:15:46;;;;;;;23.60;3.30;;;17.90;49.50;;;;;;4755488;30;20208;-81
2021/03/14 13:18:33;;;;;;;18.95;3.38;;;17.80;49.60;;;;;;4755502;30;20327;-80
2021/03/14 13:21:50;;;;;;;22.63;3.35;;;17.90;49.60;;;;;;4755903;30;20172;-82
2021/03/14 13:24:24;;;;;;;15.07;3.30;;;17.90;49.60;;;;;;4746445;30;20200;-80
2021/03/14 13:26:50;;;;;;;19.02;2.78;;;17.90;49.60;;;;;;4739121;30;20320;-80
2021/03/14 13:29:43;;;;;;;15.43;2.95;;;18.00;49.60;;;;;;4724509;30;20189;-81
2021/03/14 13:32:18;;;;;;;17.85;2.92;;;17.90;49.70;;;;;;4740910;30;20276;-80
2021/03/14 13:34:43;;;;;;;24.60;3.25;;;18.00;49.60;;;;;;4739440;30;20272;-80
2021/03/14 13:37:20;;;;;;;14.93;3.10;;;18.00;50.20;;;;;;4753696;30;20292;-81
2021/03/14 13:39:58;;;;;;;22.45;3.13;;;18.00;50.10;;;;;;4758986;30;20611;-79
2021/03/14 13:42:24;;;;;;;11.77;2.90;;;18.00;50.00;;;;;;4778777;29;20655;-80
2021/03/14 13:45:14;;;;;;;11.63;3.05;;;18.00;50.40;;;;;;4790465;29;20233;-79
2021/03/14 13:47:44;;;;;;;16.80;2.85;;;17.90;50.30;;;;;;4814904;29;20198;-80
2021/03/14 13:50:53;;;;;;;19.13;2.95;;;17.90;50.20;;;;;;4815594;29;20182;-80
2021/03/14 13:53:18;;;;;;;19.13;2.97;;;17.90;50.40;;;;;;4782512;29;21696;-81
2021/03/14 13:55:57;;;;;;;13.00;2.92;;;17.90;50.60;;;;;;4796771;29;20206;-81
2021/03/14 13:58:30;;;;;;;19.80;2.80;;;17.80;50.50;;;;;;4776079;30;20192;-83
2021/03/14 14:01:17;;;;;;;18.27;3.10;;;17.90;50.30;;;;;;4813003;29;20697;-82
2021/03/14 14:03:57;;;;;;;15.70;2.78;;;17.90;50.30;;;;;;4816903;29;20185;-81
2021/03/14 14:06:23;;;;;;;24.73;3.30;;;17.90;50.10;;;;;;4835286;29;20545;-81
2021/03/14 14:08:48;;;;;;;25.58;3.70;;;18.00;49.60;;;;;;4846174;29;20185;-81
2021/03/14 14:11:16;;;;;;;26.42;3.30;;;18.00;49.60;;;;;;4817537;29;20189;-82
2021/03/14 14:13:44;;;;;;;22.77;3.00;;;18.00;49.90;;;;;;4823025;29;20173;-81
2021/03/14 14:16:14;;;;;;;21.35;3.25;;;18.00;49.50;;;;;;4820361;29;20180;-82
2021/03/14 14:18:46;;;;;;;36.85;3.60;;;18.00;49.20;;;;;;4823683;29;20269;-82
2021/03/14 14:21:12;;;;;;;23.85;3.17;;;18.00;50.00;;;;;;4822589;29;20629;-82
2021/03/14 14:23:42;;;;;;;26.52;3.67;;;18.00;50.00;;;;;;4830357;29;20188;-82
2021/03/14 14:26:08;;;;;;;18.10;3.03;;;18.10;50.10;;;;;;4857053;29;20177;-82
2021/03/14 14:28:49;;;;;;;31.55;4.13;;;18.10;49.60;;;;;;4853274;29;20161;-82
2021/03/14 14:31:21;;;;;;;21.27;3.30;;;18.10;49.60;;;;;;4859304;29;20167;-82
2021/03/14 14:34:00;;;;;;;23.02;3.20;;;18.10;49.00;;;;;;4859790;29;20249;-82
2021/03/14 14:36:29;;;;;;;27.98;3.33;;;18.20;49.50;;;;;;4857174;29;20211;-82
2021/03/14 14:39:18;;;;;;;17.65;3.38;;;18.10;49.90;;;;;;4855357;29;20177;-82
2021/03/14 14:41:46;;;;;;;18.70;2.75;;;18.10;49.80;;;;;;4856485;29;20189;-81
2021/03/14 14:44:12;;;;;;;23.05;3.47;;;18.20;49.60;;;;;;4838664;29;20369;-82
2021/03/14 14:46:38;;;;;;;16.80;3.25;;;18.10;49.60;;;;;;4836600;29;20219;-82
2021/03/14 14:49:05;;;;;;;23.05;3.33;;;18.20;49.40;;;;;;4852087;29;20220;-82
2021/03/14 14:51:33;;;;;;;26.20;4.32;;;18.20;49.60;;;;;;4872212;29;20169;-81
2021/03/14 14:54:02;;;;;;;21.25;3.08;;;18.20;49.80;;;;;;4864099;29;20223;-81
2021/03/14 14:56:29;;;;;;;20.35;2.92;;;18.20;49.80;;;;;;4892699;29;20193;-81
2021/03/14 14:58:55;;;;;;;29.52;3.65;;;18.10;50.10;;;;;;4858618;29;20169;-80
2021/03/14 15:01:21;;;;;;;26.73;3.58;;;18.10;50.30;;;;;;4875822;29;20169;-82
2021/03/14 15:03:47;;;;;;;27.38;3.92;;;18.10;50.30;;;;;;4852161;29;20183;-81
2021/03/14 15:06:19;;;;;;;17.45;3.65;;;18.10;50.30;;;;;;4855919;29;20601;-81
2021/03/14 15:08:46;;;;;;;23.48;3.55;;;18.10;50.60;;;;;;4867263;29;20241;-81
2021/03/14 15:11:13;;;;;;;19.02;3.53;;;18.00;50.70;;;;;;4863018;29;20189;-81
2021/03/14 15:13:38;;;;;;;25.60;3.47;;;18.10;50.60;;;;;;4861363;29;20169;-81
2021/03/14 15:16:04;;;;;;;25.38;3.88;;;18.10;50.90;;;;;;4853902;29;20209;-80
2021/03/14 15:18:31;;;;;;;21.95;3.35;;;18.00;50.90;;;;;;4881829;29;20168;-81
2021/03/14 15:21:05;;;;;;;26.58;3.50;;;18.00;50.70;;;;;;4865786;29;20166;-82
2021/03/14 15:23:30;;;;;;;23.50;3.30;;;17.90;50.90;;;;;;4863887;29;20260;-81
2021/03/14 15:25:56;;;;;;;23.88;3.67;;;17.90;51.00;;;;;;4879498;29;20280;-81
2021/03/14 15:28:28;;;;;;;29.00;4.03;;;17.90;51.20;;;;;;4864729;29;20250;-80
2021/03/14 15:30:55;;;;;;;24.88;3.47;;;17.90;51.30;;;;;;4864897;29;20205;-81
2021/03/14 15:33:23;;;;;;;17.70;3.17;;;17.90;51.20;;;;;;4878907;29;20161;-81
2021/03/14 15:35:48;;;;;;;18.60;3.22;;;17.90;51.30;;;;;;4878823;29;20267;-81
2021/03/14 15:38:17;;;;;;;37.42;3.72;;;17.90;50.90;;;;;;4864028;29;20227;-81
2021/03/14 15:40:44;;;;;;;22.52;3.40;;;17.90;51.50;;;;;;4864677;29;20160;-81
2021/03/14 15:43:12;;;;;;;21.35;3.35;;;17.90;51.40;;;;;;4865345;29;20624;-81
2021/03/14 15:45:41;;;;;;;22.83;3.22;;;17.90;50.90;;;;;;4864268;29;20284;-80
2021/03/14 15:48:07;;;;;;;29.08;3.67;;;18.00;51.40;;;;;;4864316;29;20266;-81
2021/03/14 15:50:33;;;;;;;21.88;3.65;;;18.00;50.70;;;;;;4865004;29;20620;-81
2021/03/14 15:52:59;;;;;;;34.10;3.97;;;18.10;50.80;;;;;;4882335;29;20251;-81
2021/03/14 15:55:26;;;;;;;40.53;5.13;;;18.10;50.80;;;;;;4868498;29;20328;-81
2021/03/14 15:57:52;;;;;;;30.65;4.43;;;18.10;51.40;;;;;;4866870;29;20172;-81
2021/03/14 16:00:18;;;;;;;31.17;3.75;;;18.00;51.40;;;;;;4852241;29;20222;-81
2021/03/14 16:02:47;;;;;;;31.67;4.10;;;18.00;51.30;;;;;;4871208;29;20177;-81
2021/03/14 16:05:13;;;;;;;28.83;3.75;;;18.00;51.40;;;;;;4870203;29;20160;-82
2021/03/14 16:07:43;;;;;;;28.15;3.67;;;18.00;51.60;;;;;;4840035;29;20228;-82
2021/03/14 16:10:14;;;;;;;26.13;3.33;;;18.00;50.90;;;;;;4890385;29;20190;-82
2021/03/14 16:12:40;;;;;;;19.90;3.63;;;18.00;50.80;;;;;;4868969;29;20160;-80
2021/03/14 16:15:06;;;;;;;29.00;3.25;;;18.00;51.00;;;;;;4835264;29;20350;-80
2021/03/14 16:17:41;;;;;;;29.30;3.88;;;18.00;51.10;;;;;;4866641;29;20561;-81
2021/03/14 16:23:12;;;;;;;28.73;3.50;;;18.00;51.20;;;;;;4821688;29;20539;-80
2021/03/14 16:25:47;;;;;;;26.25;4.38;;;18.00;51.40;;;;;;4810535;29;20276;-80
2021/03/14 16:28:13;;;;;;;33.55;4.68;;;17.90;51.50;;;;;;4813161;29;20215;-79
2021/03/14 16:30:42;;;;;;;28.85;4.47;;;17.90;51.60;;;;;;4843955;29;20194;-80
2021/03/14 16:33:26;;;;;;;25.15;3.88;;;18.00;51.70;;;;;;4845796;29;20296;-79
2021/03/14 16:35:58;;;;;;;20.98;2.88;;;18.00;51.70;;;;;;4830598;29;20209;-80
2021/03/14 16:38:24;;;;;;;24.17;3.15;;;17.90;51.90;;;;;;4844139;29;20621;-80
2021/03/14 16:40:57;;;;;;;23.38;3.45;;;17.90;51.90;;;;;;4828414;29;20219;-80
2021/03/14 16:43:41;;;;;;;;;;;;;;;;;;;;;
2021/03/14 16:46:15;;;;;;;26.60;4.13;;;17.90;51.60;;;;;;4829077;29;20682;-80
2021/03/14 16:48:44;;;;;;;27.60;4.05;;;18.00;51.90;;;;;;4881121;29;20644;-80
2021/03/14 16:51:11;;;;;;;29.88;4.40;;;18.00;51.70;;;;;;4852449;29;20197;-80
2021/03/14 16:53:36;;;;;;;21.85;3.50;;;18.00;51.80;;;;;;4883931;29;20161;-81
2021/03/14 16:56:31;;;;;;;27.20;3.78;;;18.00;51.70;;;;;;4852071;29;20591;-80
2021/03/14 16:59:33;;;;;;;25.15;3.53;;;18.10;51.50;;;;;;4864676;29;20172;-81
2021/03/14 17:02:38;;;;;;;37.72;3.78;;;18.10;51.70;;;;;;4864268;29;20241;-80
2021/03/14 17:05:23;;;;;;;31.85;4.28;;;18.10;51.80;;;;;;4867387;29;20165;-81
2021/03/14 17:08:18;;;;;;;35.25;4.30;;;18.20;51.50;;;;;;4864587;29;20279;-81
2021/03/14 17:17:28;;;;;;;42.72;4.68;;;18.10;51.80;;;;;;4792529;30;20187;-80
2021/03/14 17:20:21;;;;;;;42.90;4.57;;;18.00;52.10;;;;;;4779856;30;20282;-80
2021/03/14 17:22:55;;;;;;;39.45;4.93;;;18.00;51.40;;;;;;4793892;29;20210;-82
2021/03/14 17:26:06;;;;;;;36.08;3.80;;;18.00;51.70;;;;;;4793955;30;20179;-81
2021/03/14 17:28:47;;;;;;;32.92;4.40;;;18.00;51.80;;;;;;4792762;30;20223;-80
2021/03/14 17:31:33;;;;;;;35.45;4.53;;;18.00;52.30;;;;;;4790560;30;20191;-80
2021/03/14 17:33:59;;;;;;;46.40;4.60;;;18.00;51.80;;;;;;4789584;30;20203;-80
2021/03/14 17:36:25;;;;;;;36.65;4.40;;;18.00;51.90;;;;;;4788654;30;20213;-80
2021/03/14 17:38:51;;;;;;;30.30;3.80;;;18.00;52.00;;;;;;4773917;30;20225;-80
2021/03/14 17:41:23;;;;;;;31.15;4.32;;;18.10;51.70;;;;;;4790290;30;20198;-80
2021/03/14 17:43:49;;;;;;;33.47;4.65;;;18.10;51.90;;;;;;4764076;30;20167;-80
2021/03/14 17:46:15;;;;;;;30.25;3.97;;;18.10;51.50;;;;;;4794341;30;20223;-82
2021/03/14 17:48:41;;;;;;;36.80;4.03;;;18.10;51.50;;;;;;4782288;30;20192;-80
2021/03/14 17:51:14;;;;;;;26.05;3.85;;;18.10;51.60;;;;;;4798235;30;20694;-81
2021/03/14 17:53:40;;;;;;;37.85;4.25;;;18.10;51.70;;;;;;4810001;29;20195;-81
2021/03/14 17:56:08;;;;;;;41.15;4.78;;;18.10;52.10;;;;;;4839664;29;20265;-81
2021/03/14 17:58:36;;;;;;;36.40;4.65;;;18.00;52.00;;;;;;4838820;29;20197;-81
2021/03/14 18:01:01;;;;;;;38.63;4.45;;;18.00;51.90;;;;;;4823774;29;20201;-82
2021/03/14 18:03:27;;;;;;;35.10;4.38;;;18.00;51.70;;;;;;4825114;29;20184;-81
2021/03/14 18:05:53;;;;;;;26.77;3.90;;;18.00;52.00;;;;;;4823823;29;20181;-81
2021/03/14 18:08:19;;;;;;;42.38;4.68;;;18.00;52.50;;;;;;4825603;29;20185;-81
2021/03/14 18:10:48;;;;;;;42.38;4.43;;;18.00;51.70;;;;;;4840245;29;20171;-80
2021/03/14 18:13:15;;;;;;;31.70;4.50;;;18.00;51.80;;;;;;4824058;29;20177;-81
2021/03/14 18:15:40;;;;;;;29.63;4.28;;;18.10;51.80;;;;;;4838602;29;20209;-81
2021/03/14 18:18:06;;;;;;;23.65;3.85;;;18.00;51.70;;;;;;4822573;29;20720;-81
2021/03/14 18:20:33;;;;;;;39.70;4.43;;;18.00;51.70;;;;;;4835911;29;20267;-81
2021/03/14 18:23:01;;;;;;;28.90;4.63;;;18.00;52.10;;;;;;4835504;29;20544;-81
2021/03/14 18:25:26;;;;;;;23.20;4.03;;;18.00;51.70;;;;;;4820947;29;20222;-81
2021/03/14 18:27:52;;;;;;;39.85;4.82;;;18.00;52.00;;;;;;4822167;29;20174;-81
2021/03/14 18:30:24;;;;;;;33.22;4.68;;;18.00;52.20;;;;;;4840584;29;20166;-81
2021/03/14 18:32:54;;;;;;;36.42;3.90;;;17.90;52.40;;;;;;4839179;29;20177;-81
2021/03/14 18:35:21;;;;;;;29.30;4.30;;;17.90;52.40;;;;;;4838093;29;20205;-81
2021/03/14 18:37:48;;;;;;;21.10;3.67;;;18.00;52.20;;;;;;4824292;29;20237;-81
2021/03/14 18:40:16;;;;;;;34.25;3.78;;;18.00;52.00;;;;;;4839647;29;20165;-81
2021/03/14 18:42:42;;;;;;;35.28;5.18;;;18.00;52.30;;;;;;4852213;29;20652;-81
2021/03/14 18:45:10;;;;;;;28.77;3.70;;;17.90;52.20;;;;;;4824238;29;20205;-81
2021/03/14 18:47:38;;;;;;;31.77;4.07;;;17.90;52.30;;;;;;4858653;29;20235;-81
2021/03/14 18:50:07;;;;;;;30.95;4.13;;;17.90;52.30;;;;;;4877656;29;20180;-81
2021/03/14 18:52:40;;;;;;;29.08;4.47;;;17.90;52.50;;;;;;4863249;29;20184;-82
2021/03/14 18:55:10;;;;;;;31.98;4.32;;;17.90;52.30;;;;;;4865741;29;20191;-82
2021/03/14 18:57:41;;;;;;;29.27;3.95;;;17.90;52.30;;;;;;4880392;29;20176;-84
2021/03/14 19:00:09;;;;;;;41.08;4.28;;;17.80;52.60;;;;;;4880214;29;20167;-83
2021/03/14 19:02:34;;;;;;;39.78;4.45;;;17.80;52.60;;;;;;4879368;29;20255;-83
2021/03/14 19:05:00;;;;;;;35.78;4.60;;;17.90;52.60;;;;;;4879375;29;20156;-83
2021/03/14 19:07:28;;;;;;;36.22;3.92;;;17.90;52.70;;;;;;4864753;29;20168;-84
2021/03/14 19:09:54;;;;;;;30.40;4.65;;;17.80;52.80;;;;;;4879847;29;20172;-84
2021/03/14 19:12:21;;;;;;;38.53;5.00;;;17.80;52.60;;;;;;4879514;29;20177;-83
2021/03/14 19:14:48;;;;;;;54.97;4.72;;;17.80;52.80;;;;;;4864314;29;20195;-84
2021/03/14 19:17:14;;;;;;;34.95;4.72;;;17.80;52.80;;;;;;4879577;29;20163;-84
2021/03/14 19:19:43;;;;;;;38.63;4.65;;;17.80;52.80;;;;;;4864530;29;20168;-83
2021/03/14 19:22:11;;;;;;;39.28;4.15;;;17.80;52.90;;;;;;4864932;29;20245;-83
2021/03/14 19:24:38;;;;;;;36.05;4.25;;;17.80;52.70;;;;;;4863243;29;20171;-84
2021/03/14 19:27:06;;;;;;;26.20;3.85;;;17.80;52.60;;;;;;4863229;29;20182;-85
2021/03/14 19:29:32;;;;;;;30.50;4.10;;;17.80;52.50;;;;;;4878909;29;20599;-85
2021/03/14 19:31:59;;;;;;;24.80;3.72;;;17.80;52.30;;;;;;4864109;29;20175;-84
2021/03/14 19:34:25;;;;;;;32.55;4.05;;;17.80;52.30;;;;;;4863176;29;20199;-84
2021/03/14 19:36:51;;;;;;;35.75;4.18;;;17.80;52.30;;;;;;4863864;29;20172;-84
2021/03/14 19:39:20;;;;;;;23.33;3.25;;;17.80;52.30;;;;;;4863430;29;20236;-85
2021/03/14 19:41:55;;;;;;;35.47;4.32;;;17.80;52.30;;;;;;4878590;29;20163;-84
2021/03/14 19:44:24;;;;;;;27.42;4.10;;;17.80;52.30;;;;;;4895764;29;20607;-85
2021/03/14 19:46:49;;;;;;;26.05;4.22;;;17.90;52.00;;;;;;4917473;29;20230;-85
2021/03/14 19:49:16;;;;;;;21.67;3.53;;;17.80;52.00;;;;;;4885505;29;20167;-84
2021/03/14 19:51:48;;;;;;;26.10;3.58;;;17.80;51.80;;;;;;4885412;29;20164;-84
2021/03/14 19:54:19;;;;;;;21.02;3.30;;;17.90;51.90;;;;;;4901275;29;20197;-84
2021/03/14 19:56:46;;;;;;;26.25;3.58;;;17.80;51.70;;;;;;4869163;29;20159;-84
2021/03/14 19:59:12;;;;;;;20.83;4.47;;;17.80;51.80;;;;;;4869886;29;20176;-84
2021/03/14 20:01:43;;;;;;;23.05;3.63;;;17.90;51.70;;;;;;4885036;29;20183;-85
2021/03/14 20:04:10;;;;;;;28.35;3.70;;;17.90;51.80;;;;;;4884352;29;20171;-85
2021/03/14 20:06:38;;;;;;;22.10;3.80;;;17.80;52.00;;;;;;4900258;29;20631;-85
2021/03/14 20:09:17;;;;;;;21.02;4.22;;;17.80;52.00;;;;;;4885542;29;20163;-84
2021/03/14 20:11:48;;;;;;;28.10;4.05;;;17.80;52.10;;;;;;4885503;29;20171;-85
2021/03/14 20:14:22;;;;;;;27.63;3.60;;;17.70;51.90;;;;;;4884610;29;20675;-85
2021/03/14 20:16:52;;;;;;;23.80;3.75;;;17.80;52.20;;;;;;4884882;29;20167;-84
2021/03/14 20:19:19;;;;;;;26.90;4.13;;;17.70;52.10;;;;;;4900200;29;20163;-85
2021/03/14 20:21:46;;;;;;;27.42;4.20;;;17.70;52.20;;;;;;4869724;29;20168;-84
2021/03/14 20:24:14;;;;;;;23.33;3.92;;;17.70;52.20;;;;;;4869094;29;20175;-85
2021/03/14 20:26:51;;;;;;;19.73;3.67;;;17.70;52.30;;;;;;4869204;29;20605;-85
2021/03/14 20:29:18;;;;;;;21.88;3.47;;;17.70;52.10;;;;;;4885518;29;20638;-84
2021/03/14 20:31:51;;;;;;;26.48;3.75;;;17.70;52.30;;;;;;4869175;29;20171;-84
2021/03/14 20:34:27;;;;;;;20.65;3.65;;;17.70;52.10;;;;;;4884935;29;20195;-85